createdAt,value
2023-03-21T00:00:31.342Z,804.00
2023-03-21T00:01:32.330Z,802.00
2023-03-21T00:02:32.345Z,791.00
2023-03-21T00:03:31.365Z,794.00
2023-03-21T00:04:44.515Z,785.00
2023-03-21T00:05:32.388Z,787.00
2023-03-21T00:06:32.290Z,792.00
2023-03-21T00:07:32.294Z,796.00
2023-03-21T00:08:32.283Z,790.00
2023-03-21T00:09:32.293Z,796.00
2023-03-21T00:11:32.274Z,812.00
2023-03-21T00:12:32.252Z,814.00
2023-03-21T00:13:32.240Z,808.00
2023-03-21T00:14:32.238Z,800.00
2023-03-21T00:15:42.643Z,805.00
2023-03-21T00:16:34.895Z,812.00
2023-03-21T00:17:31.295Z,813.00
2023-03-21T00:18:31.209Z,814.00
2023-03-21T00:19:31.196Z,812.00
2023-03-21T00:20:32.262Z,805.00
2023-03-21T00:21:51.883Z,806.00
2023-03-21T00:22:32.261Z,811.00
2023-03-21T00:23:32.240Z,792.00
2023-03-21T00:24:32.248Z,793.00
2023-03-21T00:25:32.232Z,799.00
2023-03-21T00:26:32.235Z,795.00
2023-03-21T00:27:50.396Z,805.00
2023-03-21T00:28:32.217Z,807.00
2023-03-21T00:29:31.215Z,813.00
2023-03-21T00:30:32.186Z,812.00
2023-03-21T00:31:32.204Z,811.00
2023-03-21T00:32:35.560Z,798.00
2023-03-21T00:33:32.164Z,806.00
2023-03-21T00:34:42.950Z,810.00
2023-03-21T00:35:57.939Z,807.00
2023-03-21T00:36:32.328Z,808.00
2023-03-21T00:37:32.158Z,810.00
2023-03-21T00:38:32.169Z,815.00
2023-03-21T00:39:32.126Z,814.00
2023-03-21T00:40:35.396Z,801.00
2023-03-21T00:41:42.143Z,806.00
2023-03-21T00:42:32.114Z,807.00
2023-03-21T00:43:31.092Z,810.00
2023-03-21T00:44:32.123Z,807.00
2023-03-21T00:45:31.087Z,800.00
2023-03-21T00:46:42.800Z,791.00
2023-03-21T00:47:32.117Z,807.00
2023-03-21T00:48:31.128Z,806.00
2023-03-21T00:49:32.066Z,795.00
2023-03-21T00:50:32.054Z,782.00
2023-03-21T00:51:32.033Z,762.00
2023-03-21T00:52:40.710Z,773.00
2023-03-21T00:53:32.018Z,774.00
2023-03-21T00:54:32.043Z,774.00
2023-03-21T00:55:32.009Z,777.00
2023-03-21T00:56:32.023Z,776.00
2023-03-21T00:57:38.505Z,765.00
2023-03-21T00:58:31.991Z,774.00
2023-03-21T00:59:32.003Z,776.00
2023-03-21T01:00:32.035Z,777.00
2023-03-21T01:01:32.318Z,774.00
2023-03-21T01:02:30.967Z,787.00
2023-03-21T01:03:31.956Z,771.00
2023-03-21T01:04:31.946Z,790.00
2023-03-21T01:05:31.962Z,780.00
2023-03-21T01:06:31.959Z,772.00
2023-03-21T01:07:31.942Z,764.00
2023-03-21T01:08:44.640Z,768.00
2023-03-21T01:09:31.916Z,769.00
2023-03-21T01:10:31.921Z,771.00
2023-03-21T01:11:31.910Z,774.00
2023-03-21T01:12:31.902Z,770.00
2023-03-21T01:13:33.137Z,756.00
2023-03-21T01:14:31.722Z,768.00
2023-03-21T01:15:31.862Z,765.00
2023-03-21T01:16:32.028Z,769.00
2023-03-21T01:17:31.870Z,758.00
2023-03-21T01:18:31.844Z,762.00
2023-03-21T01:19:48.302Z,764.00
2023-03-21T01:20:31.844Z,765.00
2023-03-21T01:21:31.836Z,765.00
2023-03-21T01:22:31.811Z,765.00
2023-03-21T01:23:31.822Z,752.00
2023-03-21T01:24:32.490Z,754.00
2023-03-21T01:25:31.794Z,764.00
2023-03-21T01:26:31.783Z,766.00
2023-03-21T01:27:31.771Z,758.00
2023-03-21T01:28:31.810Z,753.00
2023-03-21T01:29:31.788Z,763.00
2023-03-21T01:30:36.949Z,736.00
2023-03-21T01:31:31.845Z,738.00
2023-03-21T01:32:31.734Z,742.00
2023-03-21T01:33:31.730Z,743.00
2023-03-21T01:34:31.744Z,757.00
2023-03-21T01:35:37.521Z,754.00
2023-03-21T01:36:31.774Z,738.00
2023-03-21T01:37:31.704Z,744.00
2023-03-21T01:38:31.695Z,745.00
2023-03-21T01:39:31.687Z,748.00
2023-03-21T01:40:31.740Z,759.00
2023-03-21T01:41:44.894Z,752.00
2023-03-21T01:42:31.692Z,753.00
2023-03-21T01:43:31.672Z,755.00
2023-03-21T01:44:31.668Z,752.00
2023-03-21T01:45:30.672Z,740.00
2023-03-21T01:46:34.813Z,752.00
2023-03-21T01:47:31.665Z,753.00
2023-03-21T01:48:30.632Z,756.00
2023-03-21T01:49:31.653Z,753.00
2023-03-21T01:50:31.657Z,743.00
2023-03-21T01:51:31.624Z,738.00
2023-03-21T01:52:38.700Z,742.00
2023-03-21T01:53:31.702Z,743.00
2023-03-21T01:54:31.599Z,746.00
2023-03-21T01:55:31.608Z,749.00
2023-03-21T01:56:31.623Z,749.00
2023-03-21T01:57:41.037Z,760.00
2023-03-21T01:58:31.567Z,744.00
2023-03-21T01:59:31.572Z,745.00
2023-03-21T02:00:31.555Z,748.00
2023-03-21T02:01:31.547Z,750.00
2023-03-21T02:02:31.546Z,758.00
2023-03-21T02:03:36.033Z,733.00
2023-03-21T02:04:30.566Z,734.00
2023-03-21T02:05:31.539Z,735.00
2023-03-21T02:06:31.514Z,744.00
2023-03-21T02:07:31.510Z,741.00
2023-03-21T02:08:39.269Z,734.00
2023-03-21T02:09:31.491Z,734.00
2023-03-21T02:10:30.473Z,738.00
2023-03-21T02:11:31.470Z,735.00
2023-03-21T02:12:31.508Z,737.00
2023-03-21T02:13:30.465Z,741.00
2023-03-21T02:14:31.463Z,727.00
2023-03-21T02:15:31.437Z,724.00
2023-03-21T02:16:31.503Z,719.00
2023-03-21T02:17:31.423Z,717.00
2023-03-21T02:18:31.434Z,727.00
2023-03-21T02:19:37.215Z,722.00
2023-03-21T02:20:31.437Z,723.00
2023-03-21T02:21:31.415Z,726.00
2023-03-21T02:22:30.389Z,727.00
2023-03-21T02:23:31.385Z,729.00
2023-03-21T02:24:31.386Z,727.00
2023-03-21T02:25:31.414Z,723.00
2023-03-21T02:26:41.286Z,711.00
2023-03-21T02:27:31.370Z,712.00
2023-03-21T02:28:30.387Z,715.00
2023-03-21T02:29:31.339Z,718.00
2023-03-21T02:30:37.493Z,723.00
2023-03-21T02:31:31.470Z,713.00
2023-03-21T02:32:37.354Z,717.00
2023-03-21T02:33:31.330Z,713.00
2023-03-21T02:34:31.317Z,717.00
2023-03-21T02:35:30.303Z,721.00
2023-03-21T02:36:31.414Z,715.00
2023-03-21T02:37:37.568Z,717.00
2023-03-21T02:38:31.285Z,713.00
2023-03-21T02:39:31.274Z,718.00
2023-03-21T02:40:30.263Z,716.00
2023-03-21T02:41:39.602Z,715.00
2023-03-21T02:42:31.262Z,713.00
2023-03-21T02:43:31.249Z,718.00
2023-03-21T02:44:31.260Z,715.00
2023-03-21T02:45:31.238Z,728.00
2023-03-21T02:46:40.134Z,737.00
2023-03-21T02:47:31.220Z,713.00
2023-03-21T02:48:41.292Z,717.00
2023-03-21T02:49:31.216Z,713.00
2023-03-21T02:50:31.250Z,716.00
2023-03-21T02:51:31.216Z,703.00
2023-03-21T02:52:38.547Z,700.00
2023-03-21T02:53:31.199Z,713.00
2023-03-21T02:54:45.294Z,717.00
2023-03-21T02:55:31.184Z,713.00
2023-03-21T02:56:31.167Z,711.00
2023-03-21T02:57:41.872Z,715.00
2023-03-21T02:58:31.152Z,712.00
2023-03-21T02:59:31.147Z,716.00
2023-03-21T03:00:31.157Z,706.00
2023-03-21T03:01:31.160Z,707.00
2023-03-21T03:02:31.146Z,711.00
2023-03-21T03:03:34.757Z,715.00
2023-03-21T03:04:31.282Z,716.00
2023-03-21T03:05:31.091Z,715.00
2023-03-21T03:06:31.096Z,716.00
2023-03-21T03:07:31.090Z,694.00
2023-03-21T03:08:41.170Z,695.00
2023-03-21T03:09:31.071Z,715.00
2023-03-21T03:10:30.052Z,718.00
2023-03-21T03:11:31.062Z,716.00
2023-03-21T03:12:31.055Z,719.00
2023-03-21T03:13:31.046Z,704.00
2023-03-21T03:15:00.112Z,688.00
2023-03-21T03:15:31.062Z,690.00
2023-03-21T03:16:31.037Z,695.00
2023-03-21T03:17:31.015Z,694.00
2023-03-21T03:18:30.001Z,696.00
2023-03-21T03:19:34.466Z,691.00
2023-03-21T03:20:31.012Z,690.00
2023-03-21T03:21:31.022Z,692.00
2023-03-21T03:22:30.983Z,688.00
2023-03-21T03:23:30.988Z,696.00
2023-03-21T03:24:30.957Z,699.00
2023-03-21T03:25:42.036Z,681.00
2023-03-21T03:26:30.956Z,682.00
2023-03-21T03:27:30.972Z,684.00
2023-03-21T03:28:30.940Z,683.00
2023-03-21T03:29:30.941Z,686.00
2023-03-21T03:30:41.221Z,697.00
2023-03-21T03:31:30.946Z,682.00
2023-03-21T03:32:30.965Z,684.00
2023-03-21T03:33:30.921Z,683.00
2023-03-21T03:34:31.051Z,676.00
2023-03-21T03:35:30.958Z,688.00
2023-03-21T03:36:32.825Z,684.00
2023-03-21T03:37:30.877Z,684.00
2023-03-21T03:38:30.863Z,685.00
2023-03-21T03:39:30.879Z,667.00
2023-03-21T03:40:30.852Z,682.00
2023-03-21T03:41:50.289Z,671.00
2023-03-21T03:42:30.852Z,684.00
2023-03-21T03:43:30.835Z,680.00
2023-03-21T03:44:30.843Z,674.00
2023-03-21T03:45:30.900Z,693.00
2023-03-21T03:46:30.847Z,735.00
2023-03-21T03:47:34.901Z,780.00
2023-03-21T03:48:30.968Z,781.00
2023-03-21T03:49:30.798Z,784.00
2023-03-21T03:50:30.842Z,786.00
2023-03-21T03:51:29.773Z,811.00
2023-03-21T03:52:30.768Z,770.00
2023-03-21T03:53:30.758Z,732.00
2023-03-21T03:54:30.776Z,714.00
2023-03-21T03:55:29.745Z,694.00
2023-03-21T03:56:29.730Z,673.00
2023-03-21T03:57:29.753Z,665.00
2023-03-21T03:58:42.928Z,658.00
2023-03-21T03:59:30.716Z,659.00
2023-03-21T04:00:30.704Z,650.00
2023-03-21T04:01:30.731Z,644.00
2023-03-21T04:02:30.718Z,638.00
2023-03-21T04:03:39.203Z,635.00
2023-03-21T04:04:30.741Z,656.00
2023-03-21T04:05:29.864Z,641.00
2023-03-21T04:06:29.690Z,639.00
2023-03-21T04:07:30.677Z,636.00
2023-03-21T04:08:30.655Z,629.00
2023-03-21T04:09:43.147Z,630.00
2023-03-21T04:10:30.650Z,630.00
2023-03-21T04:11:30.639Z,631.00
2023-03-21T04:12:29.635Z,630.00
2023-03-21T04:13:30.617Z,622.00
2023-03-21T04:14:42.054Z,619.00
2023-03-21T04:15:30.598Z,630.00
2023-03-21T04:16:30.657Z,630.00
2023-03-21T04:17:30.594Z,620.00
2023-03-21T04:18:30.581Z,616.00
2023-03-21T04:19:30.592Z,615.00
2023-03-21T04:20:36.593Z,612.00
2023-03-21T04:21:30.556Z,612.00
2023-03-21T04:22:30.558Z,613.00
2023-03-21T04:23:30.548Z,613.00
2023-03-21T04:24:30.532Z,614.00
2023-03-21T04:25:33.971Z,608.00
2023-03-21T04:26:30.561Z,612.00
2023-03-21T04:27:30.513Z,609.00
2023-03-21T04:28:29.513Z,609.00
2023-03-21T04:29:29.497Z,606.00
2023-03-21T04:30:30.488Z,601.00
2023-03-21T04:31:29.572Z,601.00
2023-03-21T04:32:29.492Z,602.00
2023-03-21T04:33:30.485Z,599.00
2023-03-21T04:34:29.468Z,601.00
2023-03-21T04:35:30.511Z,599.00
2023-03-21T04:36:30.591Z,595.00
2023-03-21T04:37:31.117Z,599.00
2023-03-21T04:38:30.934Z,593.00
2023-03-21T04:39:30.739Z,591.00
2023-03-21T04:40:30.792Z,594.00
2023-03-21T04:41:30.861Z,596.00
2023-03-21T04:42:30.923Z,595.00
2023-03-21T04:43:30.963Z,591.00
2023-03-21T04:44:31.027Z,594.00
2023-03-21T04:45:31.175Z,589.00
2023-03-21T04:46:31.142Z,583.00
2023-03-21T04:47:30.202Z,587.00
2023-03-21T04:48:31.362Z,588.00
2023-03-21T04:49:31.303Z,589.00
2023-03-21T04:50:31.345Z,577.00
2023-03-21T04:51:30.426Z,583.00
2023-03-21T04:52:31.522Z,590.00
2023-03-21T04:53:31.540Z,585.00
2023-03-21T04:54:31.626Z,587.00
2023-03-21T04:55:31.642Z,581.00
2023-03-21T04:56:31.688Z,581.00
2023-03-21T04:57:31.795Z,580.00
2023-03-21T04:58:31.806Z,586.00
2023-03-21T04:59:31.882Z,585.00
2023-03-21T05:00:31.927Z,586.00
2023-03-21T05:01:32.138Z,584.00
2023-03-21T05:02:32.055Z,592.00
2023-03-21T05:03:32.332Z,581.00
2023-03-21T05:04:32.150Z,577.00
2023-03-21T05:05:31.201Z,582.00
2023-03-21T05:06:32.286Z,585.00
2023-03-21T05:07:32.353Z,579.00
2023-03-21T05:08:32.410Z,581.00
2023-03-21T05:09:32.455Z,577.00
2023-03-21T05:10:31.540Z,582.00
2023-03-21T05:11:32.585Z,577.00
2023-03-21T05:12:31.647Z,572.00
2023-03-21T05:13:31.731Z,578.00
2023-03-21T05:14:32.792Z,577.00
2023-03-21T05:15:32.841Z,574.00
2023-03-21T05:16:32.957Z,582.00
2023-03-21T05:17:31.963Z,584.00
2023-03-21T05:18:33.032Z,581.00
2023-03-21T05:19:33.072Z,577.00
2023-03-21T05:20:33.138Z,576.00
2023-03-21T05:21:32.188Z,578.00
2023-03-21T05:22:32.265Z,574.00
2023-03-21T05:23:33.342Z,571.00
2023-03-21T05:24:33.425Z,570.00
2023-03-21T05:25:33.467Z,572.00
2023-03-21T05:26:32.540Z,570.00
2023-03-21T05:27:33.616Z,569.00
2023-03-21T05:28:32.680Z,564.00
2023-03-21T05:29:33.733Z,568.00
2023-03-21T05:30:33.885Z,570.00
2023-03-21T05:31:33.850Z,566.00
2023-03-21T05:32:33.923Z,564.00
2023-03-21T05:33:33.989Z,572.00
2023-03-21T05:34:34.053Z,566.00
2023-03-21T05:35:34.274Z,563.00
2023-03-21T05:36:34.158Z,566.00
2023-03-21T05:37:33.209Z,560.00
2023-03-21T05:38:34.270Z,559.00
2023-03-21T05:39:34.315Z,560.00
2023-03-21T05:40:33.410Z,554.00
2023-03-21T05:41:33.443Z,565.00
2023-03-21T05:42:33.516Z,561.00
2023-03-21T05:43:34.553Z,561.00
2023-03-21T05:44:33.606Z,557.00
2023-03-21T05:45:34.670Z,566.00
2023-03-21T05:46:34.821Z,556.00
2023-03-21T05:47:33.764Z,558.00
2023-03-21T05:48:34.864Z,555.00
2023-03-21T05:49:34.882Z,559.00
2023-03-21T05:50:35.213Z,553.00
2023-03-21T05:51:35.000Z,562.00
2023-03-21T05:52:35.070Z,558.00
2023-03-21T05:53:35.137Z,559.00
2023-03-21T05:54:35.209Z,554.00
2023-03-21T05:55:35.392Z,553.00
2023-03-21T05:56:35.309Z,555.00
2023-03-21T05:57:35.349Z,557.00
2023-03-21T05:58:35.422Z,556.00
2023-03-21T05:59:35.497Z,549.00
2023-03-21T06:00:35.522Z,554.00
2023-03-21T06:01:35.581Z,550.00
2023-03-21T06:02:34.684Z,555.00
2023-03-21T06:03:35.881Z,551.00
2023-03-21T06:04:35.789Z,553.00
2023-03-21T06:05:35.953Z,555.00
2023-03-21T06:06:35.924Z,553.00
2023-03-21T06:07:35.943Z,556.00
2023-03-21T06:08:35.666Z,553.00
2023-03-21T06:09:36.065Z,555.00
2023-03-21T06:10:36.174Z,553.00
2023-03-21T06:11:36.196Z,555.00
2023-03-21T06:12:36.316Z,546.00
2023-03-21T06:13:36.314Z,552.00
2023-03-21T06:14:36.382Z,554.00
2023-03-21T06:15:36.921Z,558.00
2023-03-21T06:16:35.493Z,577.00
2023-03-21T06:17:35.566Z,563.00
2023-03-21T06:18:36.628Z,561.00
2023-03-21T06:19:36.656Z,557.00
2023-03-21T06:20:35.690Z,562.00
2023-03-21T06:21:36.767Z,557.00
2023-03-21T06:22:36.809Z,580.00
2023-03-21T06:23:36.851Z,529.00
2023-03-21T06:24:36.879Z,498.00
2023-03-21T06:25:37.192Z,497.00
2023-03-21T06:26:35.930Z,498.00
2023-03-21T06:27:36.939Z,501.00
2023-03-21T06:29:35.994Z,502.00
2023-03-21T06:32:37.161Z,500.00
2023-03-21T06:34:39.392Z,502.00
2023-03-21T06:45:36.714Z,506.00
2023-03-21T06:49:37.169Z,500.00
2023-03-21T06:52:36.138Z,534.00
2023-03-21T06:53:36.244Z,552.00
2023-03-21T07:07:37.042Z,809.00
2023-03-21T07:11:36.005Z,949.00
2023-03-21T07:30:37.149Z,1448.00
2023-03-21T07:46:37.946Z,1751.00
2023-03-21T07:52:38.194Z,1811.00
2023-03-21T08:01:37.553Z,1837.00
2023-03-21T08:02:37.749Z,1821.00
2023-03-21T08:03:38.751Z,1808.00
2023-03-21T08:12:38.125Z,1758.00
2023-03-21T11:36:44.948Z,1320.00
2023-03-21T11:38:44.924Z,1343.00
2023-03-21T11:39:44.954Z,1382.00
2023-03-21T11:40:44.943Z,1329.00
2023-03-21T11:41:45.284Z,1345.00
2023-03-21T11:42:45.041Z,1326.00
2023-03-21T11:44:45.050Z,1325.00
2023-03-21T11:45:45.117Z,1316.00
2023-03-21T11:46:45.271Z,1304.00
2023-03-21T11:49:45.677Z,1352.00
2023-03-21T11:50:45.398Z,1392.00
2023-03-21T11:51:45.775Z,1414.00
2023-03-21T11:53:45.624Z,1418.00
2023-03-21T11:58:45.827Z,1412.00
2023-03-21T11:59:45.853Z,1422.00
2023-03-21T12:00:45.915Z,1399.00
2023-03-21T12:01:45.975Z,1416.00
2023-03-21T12:02:45.068Z,1426.00
2023-03-21T12:03:48.484Z,1404.00
2023-03-21T12:04:46.132Z,1405.00
2023-03-21T12:05:45.981Z,1406.00
2023-03-21T12:06:46.002Z,1408.00
2023-03-21T12:07:45.960Z,1401.00
2023-03-21T12:08:45.950Z,1413.00
2023-03-21T12:09:45.943Z,1411.00
2023-03-21T12:10:45.933Z,1410.00
2023-03-21T12:11:45.982Z,1399.00
2023-03-21T12:12:45.957Z,1429.00
2023-03-21T12:14:45.926Z,1399.00
2023-03-21T12:15:45.969Z,1404.00
2023-03-21T12:16:45.918Z,1404.00
2023-03-21T12:18:45.881Z,1389.00
2023-03-21T12:19:45.884Z,1393.00
2023-03-21T12:20:45.929Z,1381.00
2023-03-21T12:21:45.880Z,1388.00
2023-03-21T12:22:45.855Z,1377.00
2023-03-21T12:23:45.844Z,1377.00
2023-03-21T12:26:45.846Z,1387.00
2023-03-21T12:27:45.832Z,1383.00
2023-03-21T12:28:45.811Z,1377.00
2023-03-21T12:30:45.840Z,1365.00
2023-03-21T12:31:45.994Z,1365.00
2023-03-21T12:32:45.785Z,1385.00
2023-03-21T12:33:45.774Z,1371.00
2023-03-21T12:34:45.766Z,1370.00
2023-03-21T12:35:45.810Z,1362.00
2023-03-21T12:36:45.897Z,1351.00
2023-03-21T12:37:45.784Z,1365.00
2023-03-21T12:38:45.724Z,1355.00
2023-03-21T12:39:45.720Z,1357.00
2023-03-21T12:40:45.735Z,1355.00
2023-03-21T12:41:45.760Z,1357.00
2023-03-21T12:42:45.787Z,1359.00
2023-03-21T12:43:45.700Z,1349.00
2023-03-21T12:44:45.691Z,1357.00
2023-03-21T12:45:47.603Z,1364.00
2023-03-21T12:46:45.738Z,1364.00
2023-03-21T12:48:45.682Z,1379.00
2023-03-21T12:49:45.663Z,1366.00
2023-03-21T12:50:45.651Z,1348.00
2023-03-21T12:51:45.644Z,1338.00
2023-03-21T12:52:45.755Z,1353.00
2023-03-21T12:53:45.616Z,1352.00
2023-03-21T12:55:45.647Z,1355.00
2023-03-21T12:56:45.612Z,1351.00
2023-03-21T12:57:56.512Z,1346.00
2023-03-21T12:58:45.580Z,1347.00
2023-03-21T12:59:45.581Z,1351.00
2023-03-21T13:00:45.792Z,1349.00
2023-03-21T13:01:45.573Z,1361.00
2023-03-21T13:02:45.587Z,1361.00
2023-03-21T13:03:45.686Z,1362.00
2023-03-21T13:04:45.543Z,1365.00
2023-03-21T13:05:45.532Z,1341.00
2023-03-21T13:06:45.532Z,1345.00
2023-03-21T13:07:45.524Z,1337.00
2023-03-21T13:08:45.625Z,1335.00
2023-03-21T13:09:45.516Z,1341.00
2023-03-21T13:10:45.500Z,1330.00
2023-03-21T13:11:45.497Z,1333.00
2023-03-21T13:12:45.479Z,1337.00
2023-03-21T13:13:45.467Z,1344.00
2023-03-21T13:14:45.465Z,1337.00
2023-03-21T13:15:45.459Z,1324.00
2023-03-21T13:16:45.517Z,1316.00
2023-03-21T13:17:45.435Z,1317.00
2023-03-21T13:18:45.454Z,1307.00
2023-03-21T13:19:45.455Z,1310.00
2023-03-21T13:20:45.414Z,1299.00
2023-03-21T13:21:45.412Z,1325.00
2023-03-21T13:23:45.404Z,1301.00
2023-03-21T13:24:45.513Z,1300.00
2023-03-21T13:25:45.392Z,1313.00
2023-03-21T13:26:45.410Z,1305.00
2023-03-21T13:27:45.366Z,1322.00
2023-03-21T13:28:45.358Z,1307.00
2023-03-21T13:29:45.366Z,1305.00
2023-03-21T13:32:45.449Z,1308.00
2023-03-21T13:33:45.329Z,1309.00
2023-03-21T13:34:45.322Z,1306.00
2023-03-21T13:35:45.405Z,1295.00
2023-03-21T13:37:45.290Z,1294.00
2023-03-21T13:38:45.279Z,1290.00
2023-03-21T13:39:45.279Z,1299.00
2023-03-21T13:40:45.399Z,1302.00
2023-03-21T13:41:45.285Z,1300.00
2023-03-21T13:42:45.268Z,1321.00
2023-03-21T13:43:45.252Z,1311.00
2023-03-21T13:44:45.243Z,1313.00
2023-03-21T13:45:45.358Z,1313.00
2023-03-21T13:46:53.465Z,1316.00
2023-03-21T13:47:45.314Z,1318.00
2023-03-21T13:48:57.872Z,1321.00
2023-03-21T13:49:45.211Z,1318.00
2023-03-21T13:50:45.189Z,1323.00
2023-03-21T13:51:45.218Z,1328.00
2023-03-21T13:53:45.175Z,1327.00
2023-03-21T13:56:45.299Z,1306.00
2023-03-21T13:58:45.149Z,1306.00
2023-03-21T13:59:45.144Z,1298.00
2023-03-21T14:00:45.125Z,1284.00
2023-03-21T14:01:45.212Z,1302.00
2023-03-21T14:02:45.132Z,1302.00
2023-03-21T14:03:45.141Z,1316.00
2023-03-21T14:05:45.100Z,1303.00
2023-03-21T14:06:45.132Z,1307.00
2023-03-21T14:07:45.093Z,1299.00
2023-03-21T14:08:45.070Z,1302.00
2023-03-21T14:09:45.077Z,1294.00
2023-03-21T14:10:45.050Z,1285.00
2023-03-21T14:11:46.995Z,1292.00
2023-03-21T14:12:45.069Z,1293.00
2023-03-21T14:13:51.221Z,1295.00
2023-03-21T14:14:45.041Z,1294.00
2023-03-21T14:15:54.890Z,1297.00
2023-03-21T14:16:45.018Z,1294.00
2023-03-21T14:17:45.028Z,1299.00
2023-03-21T14:18:53.866Z,1298.00
2023-03-21T14:19:45.005Z,1295.00
2023-03-21T14:25:47.821Z,1284.00
2023-03-21T14:26:44.956Z,1285.00
2023-03-21T14:27:44.964Z,1286.00
2023-03-21T14:32:44.928Z,1277.00
2023-03-21T14:44:54.511Z,1256.00
2023-03-21T15:47:44.993Z,1212.00
2023-03-21T15:48:45.080Z,1194.00
2023-03-21T15:49:44.983Z,1197.00
2023-03-21T15:50:44.997Z,1212.00
2023-03-21T15:51:45.037Z,1216.00
2023-03-21T15:52:45.050Z,1224.00
2023-03-21T15:54:45.076Z,1216.00
2023-03-21T15:55:45.113Z,1205.00
2023-03-21T15:57:45.175Z,1191.00
2023-03-21T15:58:45.222Z,1209.00
2023-03-21T16:01:45.304Z,1190.00
2023-03-21T16:02:45.316Z,1164.00
2023-03-21T16:03:45.326Z,1163.00
2023-03-21T16:04:45.475Z,1170.00
2023-03-21T16:05:45.397Z,1158.00
2023-03-21T16:07:45.491Z,1147.00
2023-03-21T16:08:45.512Z,1155.00
2023-03-21T16:09:45.533Z,1148.00
2023-03-21T16:10:45.589Z,1149.00
2023-03-21T16:11:45.639Z,1161.00
2023-03-21T16:13:45.689Z,1156.00
2023-03-21T16:14:45.723Z,1153.00
2023-03-21T16:16:45.874Z,1160.00
2023-03-21T16:18:45.866Z,1151.00
2023-03-21T16:19:45.858Z,1136.00
2023-03-21T16:21:45.930Z,1146.00
2023-03-21T16:22:45.996Z,1150.00
2023-03-21T16:23:44.981Z,1131.00
2023-03-21T16:24:46.021Z,1129.00
2023-03-21T16:25:46.088Z,1135.00
2023-03-21T16:26:46.111Z,1120.00
2023-03-21T16:27:46.166Z,1121.00
2023-03-21T16:28:46.199Z,1128.00
2023-03-21T16:29:46.265Z,1121.00
2023-03-21T16:30:46.329Z,1135.00
2023-03-21T16:31:46.468Z,1120.00
2023-03-21T16:32:46.413Z,1113.00
2023-03-21T16:33:46.504Z,1103.00
2023-03-21T16:34:46.498Z,1106.00
2023-03-21T16:35:46.624Z,1115.00
2023-03-21T16:36:45.652Z,1108.00
2023-03-21T16:37:45.611Z,1102.00
2023-03-21T16:38:46.692Z,1107.00
2023-03-21T16:39:46.736Z,1092.00
2023-03-21T16:40:46.735Z,1090.00
2023-03-21T16:41:46.777Z,1086.00
2023-03-21T16:42:46.812Z,1086.00
2023-03-21T16:43:46.887Z,1073.00
2023-03-21T16:44:46.888Z,1098.00
2023-03-21T16:45:47.010Z,1100.00
2023-03-21T16:46:46.961Z,1090.00
2023-03-21T16:47:47.041Z,1088.00
2023-03-21T16:48:47.058Z,1092.00
2023-03-21T16:49:47.072Z,1080.00
2023-03-21T16:50:47.108Z,1106.00
2023-03-21T16:51:47.160Z,1103.00
2023-03-21T16:52:47.227Z,1081.00
2023-03-21T16:53:47.228Z,1111.00
2023-03-21T16:54:46.292Z,1099.00
2023-03-21T16:55:47.305Z,1112.00
2023-03-21T16:56:47.337Z,1105.00
2023-03-21T16:57:47.362Z,1091.00
2023-03-21T16:58:47.396Z,1083.00
2023-03-21T16:59:47.442Z,1084.00
2023-03-21T17:00:47.474Z,1086.00
2023-03-21T17:01:47.529Z,1098.00
2023-03-21T17:02:47.589Z,1091.00
2023-03-21T17:03:46.557Z,1098.00
2023-03-21T17:04:47.586Z,1095.00
2023-03-21T17:05:47.626Z,1107.00
2023-03-21T17:06:47.670Z,1097.00
2023-03-21T17:07:47.695Z,1098.00
2023-03-21T17:08:47.783Z,1097.00
2023-03-21T17:09:47.779Z,1103.00
2023-03-21T17:10:47.820Z,1097.00
2023-03-21T17:11:47.859Z,1090.00
2023-03-21T17:12:47.877Z,1092.00
2023-03-21T17:13:47.932Z,1092.00
2023-03-21T17:14:48.030Z,1093.00
2023-03-21T17:15:48.013Z,1097.00
2023-03-21T17:16:48.083Z,1092.00
2023-03-21T17:17:48.099Z,1087.00
2023-03-21T17:18:48.152Z,1084.00
2023-03-21T17:19:47.182Z,1102.00
2023-03-21T17:20:48.236Z,1101.00
2023-03-21T17:21:48.276Z,1098.00
2023-03-21T17:22:48.321Z,1103.00
2023-03-21T17:23:48.372Z,1081.00
2023-03-21T17:24:47.430Z,1110.00
2023-03-21T17:25:48.466Z,1087.00
2023-03-21T17:26:48.500Z,1099.00
2023-03-21T17:27:48.541Z,1091.00
2023-03-21T17:28:48.590Z,1110.00
2023-03-21T17:29:48.700Z,1086.00
2023-03-21T17:30:47.743Z,1081.00
2023-03-21T17:31:48.731Z,1064.00
2023-03-21T17:32:48.792Z,1068.00
2023-03-21T17:33:48.834Z,1063.00
2023-03-21T17:34:48.863Z,1061.00
2023-03-21T17:35:47.987Z,1069.00
2023-03-21T17:36:48.954Z,1061.00
2023-03-21T17:37:49.003Z,1063.00
2023-03-21T17:38:49.052Z,1064.00
2023-03-21T17:39:49.098Z,1058.00
2023-03-21T17:40:50.543Z,1058.00
2023-03-21T17:41:48.187Z,1061.00
2023-03-21T17:42:49.227Z,1047.00
2023-03-21T17:43:48.272Z,1047.00
2023-03-21T17:44:49.331Z,1047.00
2023-03-21T17:45:49.576Z,1048.00
2023-03-21T17:46:51.587Z,1042.00
2023-03-21T17:47:49.452Z,1068.00
2023-03-21T17:48:49.418Z,1064.00
2023-03-21T17:49:49.397Z,1067.00
2023-03-21T17:50:48.389Z,1052.00
2023-03-21T17:51:49.386Z,1059.00
2023-03-21T17:52:50.565Z,1031.00
2023-03-21T17:53:48.395Z,1043.00
2023-03-21T17:54:49.361Z,1048.00
2023-03-21T17:55:49.422Z,1040.00
2023-03-21T17:56:48.504Z,1041.00
2023-03-21T17:57:49.554Z,1034.00
2023-03-21T17:58:49.564Z,1020.00
2023-03-21T17:59:49.597Z,1040.00
2023-03-21T18:00:49.652Z,1033.00
2023-03-21T18:01:49.736Z,1027.00
2023-03-21T18:02:49.738Z,1036.00
2023-03-21T18:03:49.813Z,1037.00
2023-03-21T18:04:49.891Z,1024.00
2023-03-21T18:05:49.907Z,1020.00
2023-03-21T18:06:49.948Z,1029.00
2023-03-21T18:08:50.014Z,1029.00
2023-03-21T18:09:49.995Z,1029.00
2023-03-21T18:10:49.995Z,1034.00
2023-03-21T18:11:50.010Z,1017.00
2023-03-21T18:12:48.984Z,1005.00
2023-03-21T18:13:48.990Z,1021.00
2023-03-21T18:14:49.979Z,1010.00
2023-03-21T18:15:50.037Z,996.00
2023-03-21T18:16:50.050Z,1016.00
2023-03-21T18:17:49.946Z,1000.00
2023-03-21T18:18:49.945Z,1003.00
2023-03-21T18:19:50.545Z,1009.00
2023-03-21T18:20:52.618Z,1004.00
2023-03-21T18:21:49.909Z,1005.00
2023-03-21T18:22:50.282Z,1006.00
2023-03-21T18:23:48.888Z,1007.00
2023-03-21T18:24:49.891Z,1004.00
2023-03-21T18:25:49.879Z,1011.00
2023-03-21T18:26:49.858Z,1010.00
2023-03-21T18:28:10.058Z,1000.00
2023-03-21T18:29:34.258Z,1002.00
2023-03-21T18:31:07.852Z,1003.00
2023-03-21T18:32:04.856Z,1003.00
2023-03-21T18:32:49.860Z,1004.00
2023-03-21T18:33:48.816Z,1011.00
2023-03-21T18:34:49.825Z,1017.00
2023-03-21T18:35:53.812Z,1014.00
2023-03-21T18:36:49.797Z,1002.00
2023-03-21T18:37:50.200Z,1005.00
2023-03-21T18:38:49.781Z,1007.00
2023-03-21T18:39:49.786Z,1004.00
2023-03-21T18:40:49.771Z,1011.00
2023-03-21T18:41:50.056Z,997.00
2023-03-21T18:43:45.642Z,987.00
2023-03-21T18:44:02.672Z,989.00
2023-03-21T18:44:49.739Z,990.00
2023-03-21T18:45:49.718Z,996.00
2023-03-21T18:46:49.783Z,998.00
2023-03-21T18:47:49.756Z,998.00
2023-03-21T18:48:49.203Z,990.00
2023-03-21T18:50:49.680Z,994.00
2023-03-21T18:51:49.680Z,996.00
2023-03-21T18:52:49.681Z,996.00
2023-03-21T18:53:49.671Z,990.00
2023-03-21T18:54:49.667Z,988.00
2023-03-21T18:55:52.349Z,967.00
2023-03-21T18:57:49.641Z,970.00
2023-03-21T18:58:49.643Z,974.00
2023-03-21T18:59:48.645Z,972.00
2023-03-21T19:00:48.756Z,965.00
2023-03-21T19:01:49.656Z,970.00
2023-03-21T19:02:50.634Z,962.00
2023-03-21T19:04:14.489Z,974.00
2023-03-21T19:04:49.653Z,975.00
2023-03-21T19:05:49.606Z,976.00
2023-03-21T19:06:49.587Z,967.00
2023-03-21T19:07:49.653Z,964.00
2023-03-21T19:08:48.571Z,968.00
2023-03-21T19:10:13.970Z,954.00
2023-03-21T19:10:49.563Z,956.00
2023-03-21T19:11:48.547Z,958.00